Time;durP1;ratioP1;P1;durP2;ratioP2;P2;SDS_P1;SDS_P2;PMS_P1;PMS_P2;Temp;Humidity;BMP_temperature;BMP_pressure;BME280_temperature;BME280_humidity;BME280_pressure;Samples;Min_cycle;Max_cycle;Signal;HPM_P1;HPM_P2
2022/07/25 00:01:15;;;;;;;3.00;2.00;;;;;;;25.52;35.29;98965.09;5000454;28;20070;-60
2022/07/25 00:04:00;;;;;;;2.58;1.60;;;;;;;25.30;35.98;98959.81;5000352;28;20041;-60
2022/07/25 00:06:45;;;;;;;2.97;1.63;;;;;;;25.39;35.49;98955.97;4999112;28;20042;-60
2022/07/25 00:09:29;;;;;;;2.83;1.58;;;;;;;25.27;36.07;98955.69;5023725;28;20390;-59
2022/07/25 00:12:14;;;;;;;2.70;1.50;;;;;;;25.16;35.91;98954.38;5013229;28;20417;-60
2022/07/25 00:14:59;;;;;;;2.58;1.70;;;;;;;25.09;36.45;98956.19;5020651;28;20108;-59
2022/07/25 00:17:44;;;;;;;2.67;1.67;;;;;;;24.57;35.57;98954.53;5013361;28;20105;-60
2022/07/25 00:20:28;;;;;;;2.22;1.55;;;;;;;24.77;37.35;98961.06;5012625;28;20041;-60
2022/07/25 00:23:13;;;;;;;3.05;1.67;;;;;;;24.95;36.78;98952.59;5011895;28;20049;-60
2022/07/25 00:25:58;;;;;;;2.03;1.40;;;;;;;25.16;36.63;98949.03;5013342;28;20045;-59
2022/07/25 00:28:42;;;;;;;2.10;1.45;;;;;;;25.06;36.58;98948.53;5013363;28;20467;-59
2022/07/25 00:31:27;;;;;;;1.92;1.38;;;;;;;24.84;37.02;98952.06;5006930;28;20066;-60
2022/07/25 00:34:12;;;;;;;2.42;1.48;;;;;;;24.97;36.93;98943.31;5012006;28;20096;-60
2022/07/25 00:36:56;;;;;;;2.13;1.35;;;;;;;24.95;37.14;98941.88;5012265;28;20509;-59
2022/07/25 00:39:41;;;;;;;2.40;1.50;;;;;;;24.98;36.74;98933.44;5012187;28;20124;-60
2022/07/25 00:42:26;;;;;;;1.85;1.20;;;;;;;25.02;36.68;98941.91;5014022;28;20042;-59
2022/07/25 00:45:11;;;;;;;2.35;1.30;;;;;;;25.02;36.92;98942.72;5011637;28;20069;-60
2022/07/25 00:47:55;;;;;;;3.35;1.40;;;;;;;25.07;36.66;98934.94;5011287;28;20057;-59
2022/07/25 00:50:40;;;;;;;1.92;1.45;;;;;;;25.09;36.47;98943.63;4997539;28;20042;-59
2022/07/25 00:53:25;;;;;;;3.08;1.60;;;;;;;25.31;36.20;98930.13;5026170;28;20375;-60
2022/07/25 00:56:10;;;;;;;2.20;1.60;;;;;;;25.26;36.09;98931.75;5012120;28;20038;-60
2022/07/25 00:58:54;;;;;;;2.97;1.75;;;;;;;25.20;36.55;98938.75;5013297;28;20365;-60
2022/07/25 01:01:40;;;;;;;2.67;1.50;;;;;;;25.10;36.70;98933.72;5012316;28;20069;-60
2022/07/25 01:04:26;;;;;;;3.38;1.80;;;;;;;25.27;36.68;98931.56;5011432;28;20044;-59
2022/07/25 01:07:10;;;;;;;2.42;1.52;;;;;;;25.45;36.33;98923.00;5012519;28;20478;-60
2022/07/25 01:09:56;;;;;;;3.78;1.70;;;;;;;25.41;36.29;98924.41;5012329;28;20033;-60
2022/07/25 01:12:50;;;;;;;3.13;1.85;;;;;;;25.44;36.17;98924.03;5025498;28;20041;-60
2022/07/25 01:15:34;;;;;;;3.90;1.50;;;;;;;25.28;36.42;98924.34;5012097;28;20042;-59
2022/07/25 01:18:19;;;;;;;2.50;1.60;;;;;;;24.92;36.20;98921.66;4999640;28;20042;-59
2022/07/25 01:21:04;;;;;;;3.08;1.55;;;;;;;24.66;37.10;98922.25;5025054;28;20065;-60
2022/07/25 01:23:50;;;;;;;2.88;1.40;;;;;;;24.67;37.33;98923.91;5012370;28;20042;-61
2022/07/25 01:26:35;;;;;;;3.45;1.60;;;;;;;24.77;36.98;98916.38;5011690;28;20081;-60
2022/07/25 01:29:20;;;;;;;2.17;1.48;;;;;;;24.90;37.30;98918.34;5010836;28;20045;-60
2022/07/25 01:32:05;;;;;;;2.17;1.50;;;;;;;25.05;37.13;98912.06;5011981;28;20061;-60
2022/07/25 01:34:50;;;;;;;2.03;1.40;;;;;;;25.48;36.43;98908.34;5013288;28;20060;-60
2022/07/25 01:37:35;;;;;;;4.35;1.55;;;;;;;25.56;36.22;98904.66;5012526;28;20046;-60
2022/07/25 01:40:20;;;;;;;1.88;1.52;;;;;;;25.48;35.92;98902.19;5012016;28;20064;-60
2022/07/25 01:43:05;;;;;;;2.95;1.60;;;;;;;25.26;35.82;98911.16;5012071;28;20045;-60
2022/07/25 01:45:49;;;;;;;2.47;1.48;;;;;;;24.72;35.75;98900.91;5011781;28;20339;-60
2022/07/25 01:48:34;;;;;;;1.83;1.40;;;;;;;25.14;36.31;98899.31;4999931;28;20034;-60
2022/07/25 01:51:19;;;;;;;2.10;1.42;;;;;;;25.37;36.00;98892.81;5011042;28;20042;-60
2022/07/25 01:54:03;;;;;;;3.30;1.48;;;;;;;25.36;36.06;98892.03;5011307;28;20065;-60
2022/07/25 01:56:48;;;;;;;2.80;1.50;;;;;;;25.26;36.33;98896.91;5008424;28;20097;-61
2022/07/25 01:59:38;;;;;;;2.80;1.27;;;;;;;25.32;35.92;98890.75;5012173;28;20068;-60
2022/07/25 02:02:22;;;;;;;1.67;1.33;;;;;;;25.21;36.02;98893.00;4999364;28;20045;-59
2022/07/25 02:05:09;;;;;;;1.60;1.30;;;;;;;25.01;36.28;98886.66;5011505;28;20038;-60
2022/07/25 02:07:54;;;;;;;2.25;1.20;;;;;;;24.80;36.16;98888.38;5009785;28;20042;-59
2022/07/25 02:10:39;;;;;;;2.97;1.35;;;;;;;24.88;36.24;98890.91;5010872;28;20038;-60
2022/07/25 02:13:25;;;;;;;2.08;1.40;;;;;;;24.94;36.09;98889.31;5009255;28;20041;-59
2022/07/25 02:16:11;;;;;;;1.90;1.10;;;;;;;24.78;36.42;98885.03;4996696;28;20058;-59
2022/07/25 02:18:55;;;;;;;2.00;1.40;;;;;;;24.98;36.05;98895.94;4996190;28;20042;-60
2022/07/25 02:21:40;;;;;;;2.25;1.55;;;;;;;25.14;34.84;98878.72;5011663;28;20042;-60
2022/07/25 02:24:25;;;;;;;3.90;1.58;;;;;;;25.13;36.02;98879.75;4999380;28;20050;-59
2022/07/25 02:27:10;;;;;;;1.90;1.20;;;;;;;24.90;35.53;98880.00;5009794;28;20053;-59
2022/07/25 02:29:55;;;;;;;2.35;1.33;;;;;;;24.68;36.49;98883.53;5011823;28;20181;-59
2022/07/25 02:32:40;;;;;;;1.77;1.10;;;;;;;24.87;36.10;98875.84;4983370;28;20052;-59
2022/07/25 02:35:25;;;;;;;2.95;1.20;;;;;;;25.14;35.60;98869.84;5010782;28;20042;-62
2022/07/25 02:38:09;;;;;;;1.42;1.00;;;;;;;25.12;35.38;98871.91;5009729;28;20030;-61
2022/07/25 02:40:54;;;;;;;1.98;1.42;;;;;;;25.11;35.73;98879.09;5011286;28;20033;-59
2022/07/25 02:43:38;;;;;;;3.33;1.10;;;;;;;25.00;36.06;98879.66;5023598;28;20076;-60
2022/07/25 02:46:23;;;;;;;1.63;1.25;;;;;;;25.07;35.71;98880.50;5011203;28;20048;-61
2022/07/25 02:49:08;;;;;;;1.70;0.93;;;;;;;25.13;35.73;98879.75;5010577;28;20072;-60
2022/07/25 02:51:53;;;;;;;2.55;1.40;;;;;;;25.38;35.38;98873.88;5010348;28;20042;-59
2022/07/25 02:54:38;;;;;;;3.13;1.08;;;;;;;25.46;35.31;98880.94;5010530;28;20148;-60
2022/07/25 02:57:22;;;;;;;2.22;1.00;;;;;;;25.35;35.40;98879.63;4990467;28;20100;-60
2022/07/25 03:00:09;;;;;;;2.15;1.20;;;;;;;25.45;35.15;98874.72;4997790;28;20030;-61
2022/07/25 03:02:53;;;;;;;1.60;1.13;;;;;;;25.39;35.49;98878.22;5005459;28;20061;-59
2022/07/25 03:05:38;;;;;;;1.33;1.10;;;;;;;25.27;35.41;98874.44;5014006;28;20572;-59
2022/07/25 03:08:23;;;;;;;2.20;1.25;;;;;;;25.23;35.77;98884.75;5011386;28;20046;-59
2022/07/25 03:11:07;;;;;;;2.47;1.30;;;;;;;25.08;35.83;98884.88;5015937;28;20034;-59
2022/07/25 03:13:52;;;;;;;1.95;1.15;;;;;;;25.12;35.82;98883.44;5019846;28;20130;-60
2022/07/25 03:16:37;;;;;;;1.98;1.35;;;;;;;25.09;35.95;98882.00;5010465;28;20042;-60
2022/07/25 03:19:21;;;;;;;2.03;1.50;;;;;;;25.26;35.62;98880.84;5011345;28;20050;-59
2022/07/25 03:22:06;;;;;;;1.67;1.13;;;;;;;25.39;35.51;98883.59;5009141;28;20038;-59
2022/07/25 03:24:52;;;;;;;2.80;1.50;;;;;;;25.36;35.43;98886.66;5009702;28;20462;-60
2022/07/25 03:27:37;;;;;;;1.67;1.10;;;;;;;25.17;35.77;98889.03;5011481;28;20042;-59
2022/07/25 03:30:21;;;;;;;2.42;1.20;;;;;;;25.11;36.05;98892.50;5010180;28;20172;-60
2022/07/25 03:33:07;;;;;;;3.83;1.30;;;;;;;24.88;35.52;98887.38;4999117;28;20065;-59
2022/07/25 03:35:52;;;;;;;2.33;1.50;;;;;;;24.31;36.51;98889.03;5014379;28;20105;-60
2022/07/25 03:38:36;;;;;;;1.48;1.25;;;;;;;24.66;38.68;98900.84;5026996;28;20335;-61
2022/07/25 03:41:21;;;;;;;2.35;1.30;;;;;;;24.45;36.89;98898.00;5013352;28;20054;-60
2022/07/25 03:44:06;;;;;;;2.38;1.38;;;;;;;24.38;38.39;98897.13;5014188;28;20050;-62
2022/07/25 03:46:51;;;;;;;4.20;1.40;;;;;;;24.11;38.72;98902.19;5012441;28;20413;-59
2022/07/25 03:49:35;;;;;;;3.13;1.35;;;;;;;23.92;39.21;98896.44;5013378;28;20072;-60
2022/07/25 03:52:20;;;;;;;1.67;1.23;;;;;;;24.02;37.80;98890.78;5000513;28;20076;-58
2022/07/25 03:55:07;;;;;;;2.97;1.60;;;;;;;23.44;39.29;98896.91;5013671;28;20045;-60
2022/07/25 03:57:54;;;;;;;2.72;1.50;;;;;;;23.86;38.01;98887.31;5014203;28;20042;-60
2022/07/25 04:00:39;;;;;;;4.43;1.83;;;;;;;22.73;39.81;98894.50;5026253;28;20120;-59
2022/07/25 04:03:23;;;;;;;6.07;1.63;;;;;;;22.62;41.18;98900.28;5026812;28;20110;-60
2022/07/25 04:06:08;;;;;;;3.33;1.60;;;;;;;22.68;40.60;98899.53;5027189;28;20034;-59
2022/07/25 04:08:54;;;;;;;2.85;1.65;;;;;;;22.41;40.27;98893.72;5013485;28;20474;-59
2022/07/25 04:11:39;;;;;;;3.15;1.48;;;;;;;22.02;41.35;98888.34;5012961;28;20537;-58
2022/07/25 04:14:24;;;;;;;3.10;1.90;;;;;;;21.87;41.79;98884.78;5013204;28;20154;-59
2022/07/25 04:17:09;;;;;;;2.58;1.70;;;;;;;21.80;42.01;98884.66;5026476;28;20430;-59
2022/07/25 04:19:53;;;;;;;4.53;1.73;;;;;;;21.57;42.48;98884.56;4998307;28;20390;-59
2022/07/25 04:22:38;;;;;;;3.30;1.80;;;;;;;22.03;41.48;98886.53;5026232;28;20080;-59
2022/07/25 04:25:23;;;;;;;2.05;1.50;;;;;;;22.16;41.25;98880.59;5013339;28;20065;-59
2022/07/25 04:28:08;;;;;;;2.72;1.70;;;;;;;22.36;40.62;98883.59;5024105;28;20053;-59
2022/07/25 04:30:53;;;;;;;2.83;1.70;;;;;;;22.40;41.12;98882.25;4996941;28;20037;-59
2022/07/25 04:33:39;;;;;;;4.18;2.35;;;;;;;22.12;41.22;98880.13;5009330;28;20105;-59
2022/07/25 04:36:23;;;;;;;2.15;1.42;;;;;;;22.35;41.12;98873.94;4998020;28;20117;-60
2022/07/25 04:39:08;;;;;;;3.20;1.42;;;;;;;22.40;41.04;98876.06;5012406;28;20041;-60
2022/07/25 04:41:53;;;;;;;2.70;1.50;;;;;;;22.20;41.04;98881.88;5012450;28;20049;-60
2022/07/25 04:44:38;;;;;;;2.47;1.63;;;;;;;22.31;41.07;98874.47;5012899;28;20048;-59
2022/07/25 04:47:22;;;;;;;4.35;1.45;;;;;;;22.30;40.97;98873.63;5017726;28;20411;-65
2022/07/25 04:50:08;;;;;;;2.10;1.30;;;;;;;22.71;40.01;98872.47;5011486;28;20074;-67
2022/07/25 04:52:53;;;;;;;4.28;1.45;;;;;;;22.92;39.90;98870.09;5013250;28;20050;-67
2022/07/25 04:55:38;;;;;;;2.08;1.10;;;;;;;22.82;39.99;98873.88;5012538;28;20088;-67
2022/07/25 04:58:22;;;;;;;3.22;1.50;;;;;;;22.47;40.24;98868.16;5025545;28;20066;-67
2022/07/25 05:01:07;;;;;;;7.53;1.27;;;;;;;22.45;40.65;98864.84;5012974;28;20038;-67
2022/07/25 05:03:52;;;;;;;3.03;1.40;;;;;;;22.66;40.13;98874.03;5025669;28;20038;-68
2022/07/25 05:06:36;;;;;;;2.50;1.40;;;;;;;22.68;40.02;98869.34;5013189;28;20057;-68
2022/07/25 05:09:21;;;;;;;3.13;1.55;;;;;;;22.80;40.29;98864.38;5012184;28;20064;-66
2022/07/25 05:12:06;;;;;;;2.28;1.10;;;;;;;22.71;40.06;98863.63;5011259;28;20050;-65
2022/07/25 05:14:51;;;;;;;3.20;1.08;;;;;;;22.62;40.02;98865.56;5002048;28;20057;-61
2022/07/25 05:17:36;;;;;;;8.25;1.90;;;;;;;22.77;39.91;98865.56;5012585;28;20064;-63
2022/07/25 05:20:21;;;;;;;3.65;1.67;;;;;;;23.03;39.10;98861.63;4997653;28;20084;-62
2022/07/25 05:23:05;;;;;;;3.15;1.60;;;;;;;22.88;40.81;98864.31;5012231;28;20065;-62
2022/07/25 05:25:50;;;;;;;3.70;1.70;;;;;;;22.96;39.58;98871.41;5000332;28;20034;-63
2022/07/25 05:28:36;;;;;;;3.08;1.63;;;;;;;22.86;40.21;98871.66;5012043;28;20096;-60
2022/07/25 05:31:21;;;;;;;3.80;1.27;;;;;;;23.29;38.94;98875.53;4996816;28;20065;-61
2022/07/25 05:34:06;;;;;;;9.57;1.50;;;;;;;22.87;40.14;98876.81;4996891;28;20473;-71
2022/07/25 05:36:50;;;;;;;3.88;1.30;;;;;;;22.87;39.79;98875.97;5024686;28;20112;-59
2022/07/25 05:39:38;;;;;;;2.47;1.20;;;;;;;22.63;39.85;98872.56;4997217;28;20041;-59
2022/07/25 05:42:23;;;;;;;3.30;1.23;;;;;;;22.80;39.92;98870.53;5011448;28;20041;-60
2022/07/25 05:45:08;;;;;;;2.40;1.20;;;;;;;22.88;39.64;98870.44;5024429;28;20034;-61
2022/07/25 05:47:52;;;;;;;3.00;1.40;;;;;;;22.93;39.36;98871.75;5012174;28;20132;-62
2022/07/25 05:50:37;;;;;;;3.65;1.23;;;;;;;23.09;39.16;98868.06;4999521;28;20038;-64
2022/07/25 05:53:22;;;;;;;1.70;1.35;;;;;;;23.40;38.45;98869.75;5011328;28;20483;-60
2022/07/25 05:56:07;;;;;;;11.52;1.48;;;;;;;23.25;38.62;98873.22;5006301;28;20044;-64
2022/07/25 05:58:52;;;;;;;2.65;1.20;;;;;;;23.54;38.92;98869.88;5001227;28;20041;-62
2022/07/25 06:01:36;;;;;;;3.80;2.13;;;;;;;23.72;37.99;98867.66;5007413;28;20053;-62
2022/07/25 06:04:21;;;;;;;3.53;1.50;;;;;;;24.36;36.72;98869.72;5013387;28;20045;-57
2022/07/25 06:07:06;;;;;;;6.68;1.65;;;;;;;24.41;36.51;98871.81;5011148;28;20104;-53
2022/07/25 06:09:51;;;;;;;2.45;1.38;;;;;;;23.87;37.47;98870.28;5011992;28;20049;-72
2022/07/25 06:12:36;;;;;;;2.97;1.83;;;;;;;23.68;37.36;98870.88;5024403;28;20099;-68
2022/07/25 06:15:20;;;;;;;3.75;2.28;;;;;;;23.94;37.15;98870.31;5002706;28;20091;-72
2022/07/25 06:18:05;;;;;;;4.35;1.42;;;;;;;23.81;37.01;98868.34;5011197;28;20068;-68
2022/07/25 06:20:50;;;;;;;4.57;2.13;;;;;;;23.91;37.00;98867.22;5020605;28;20470;-72
2022/07/25 06:23:35;;;;;;;4.55;1.60;;;;;;;24.77;37.75;98862.81;5024140;28;20069;-62
2022/07/25 06:26:20;;;;;;;4.10;1.70;;;;;;;24.61;36.56;98866.63;5023803;28;20041;-64
2022/07/25 06:29:04;;;;;;;4.40;1.85;;;;;;;24.97;35.38;98854.91;4997525;28;20426;-62
2022/07/25 06:31:49;;;;;;;3.15;2.00;;;;;;;24.86;36.15;98858.13;5007665;28;20072;-62
2022/07/25 06:34:34;;;;;;;3.20;1.60;;;;;;;24.63;36.03;98861.88;5009088;28;20030;-62
2022/07/25 06:37:18;;;;;;;4.85;2.05;;;;;;;24.83;36.27;98858.50;5008283;28;20411;-62
2022/07/25 06:40:04;;;;;;;4.30;2.17;;;;;;;25.14;35.57;98851.91;5009701;28;20041;-60
2022/07/25 06:42:48;;;;;;;2.88;2.05;;;;;;;25.52;34.95;98849.78;5013214;28;20471;-62
2022/07/25 06:45:34;;;;;;;4.70;1.80;;;;;;;25.61;34.85;98855.81;5001273;28;20041;-62
2022/07/25 06:48:19;;;;;;;8.10;1.60;;;;;;;25.65;35.53;98849.88;5009998;28;20033;-63
2022/07/25 06:51:05;;;;;;;4.22;1.90;;;;;;;26.15;35.60;98847.88;5009679;28;20069;-50
2022/07/25 06:53:49;;;;;;;8.45;1.90;;;;;;;25.73;35.40;98842.66;5018323;28;20040;-53
2022/07/25 06:56:34;;;;;;;4.00;1.98;;;;;;;25.79;35.71;98841.84;4990590;28;20042;-62
2022/07/25 06:59:19;;;;;;;5.53;1.80;;;;;;;26.00;35.25;98848.91;5010760;28;20038;-67
2022/07/25 07:02:03;;;;;;;3.05;1.73;;;;;;;26.26;35.47;98846.44;5014564;28;20053;-67
2022/07/25 07:04:48;;;;;;;5.18;2.15;;;;;;;26.10;35.76;98843.13;5006582;28;20450;-60
2022/07/25 07:07:33;;;;;;;2.47;1.65;;;;;;;26.66;34.91;98842.94;5017381;28;20064;-58
2022/07/25 07:10:19;;;;;;;4.90;2.35;;;;;;;27.15;35.10;98846.16;5014739;28;20037;-56
2022/07/25 07:13:17;;;;;;;2.33;1.65;;;;;;;27.54;32.53;98837.28;5014414;28;20121;-54
2022/07/25 07:16:02;;;;;;;2.30;1.50;;;;;;;27.09;33.53;98838.09;5014862;28;20042;-62
2022/07/25 07:18:47;;;;;;;4.07;1.80;;;;;;;27.12;32.84;98830.44;5013804;28;20025;-67
2022/07/25 07:21:32;;;;;;;2.58;1.50;;;;;;;26.76;33.46;98835.28;5013873;28;20171;-55
2022/07/25 07:24:18;;;;;;;3.00;1.75;;;;;;;26.99;33.22;98825.91;5013120;28;20485;-56
2022/07/25 07:27:03;;;;;;;2.88;1.65;;;;;;;27.06;33.62;98834.78;5013346;28;20113;-54
2022/07/25 07:29:48;;;;;;;3.47;2.10;;;;;;;27.53;32.73;98824.88;5012674;28;20391;-54
2022/07/25 07:32:32;;;;;;;2.83;1.70;;;;;;;27.78;32.64;98824.97;5012506;28;20060;-58
2022/07/25 07:35:18;;;;;;;4.72;1.80;;;;;;;27.27;33.22;98827.47;5026283;28;20038;-58
2022/07/25 07:38:02;;;;;;;2.00;1.70;;;;;;;27.89;32.59;98825.31;5013213;28;20109;-60
2022/07/25 07:40:47;;;;;;;3.00;1.55;;;;;;;28.32;32.12;98817.53;5012688;28;20042;-59
2022/07/25 07:43:32;;;;;;;3.75;2.05;;;;;;;27.83;32.32;98816.22;5013952;28;20042;-70
2022/07/25 07:46:16;;;;;;;4.93;2.30;;;;;;;27.88;32.26;98820.94;5023798;28;20501;-69
2022/07/25 07:49:01;;;;;;;3.58;1.95;;;;;;;27.84;32.00;98820.59;5026813;28;20482;-70
2022/07/25 07:51:46;;;;;;;3.33;2.35;;;;;;;27.66;32.31;98808.63;5014057;28;20041;-71
2022/07/25 07:57:34;;;;;;;3.70;2.33;;;;;;;28.59;31.52;98811.91;4993484;28;20094;-70
2022/07/25 08:00:19;;;;;;;3.42;2.00;;;;;;;28.83;31.04;98806.66;5028467;28;20044;-71
2022/07/25 08:03:06;;;;;;;3.30;2.30;;;;;;;27.55;32.43;98814.72;5022635;28;20046;-71
2022/07/25 08:05:50;;;;;;;9.38;2.33;;;;;;;28.63;30.79;98803.16;5012927;28;20098;-73
2022/07/25 08:08:35;;;;;;;4.53;2.63;;;;;;;29.23;30.36;98806.22;5012639;28;20489;-73
2022/07/25 08:11:20;;;;;;;3.72;2.20;;;;;;;29.38;30.94;98804.97;4996309;28;20069;-73
2022/07/25 08:14:05;;;;;;;4.20;2.30;;;;;;;29.51;30.50;98804.81;5012351;28;20061;-73
2022/07/25 08:16:51;;;;;;;5.47;2.53;;;;;;;29.44;30.87;98804.09;5026535;28;20033;-72
2022/07/25 08:19:36;;;;;;;5.32;2.00;;;;;;;29.96;29.94;98799.19;5026387;28;20216;-72
2022/07/25 08:22:21;;;;;;;5.13;2.65;;;;;;;29.41;30.80;98799.13;5000044;28;20038;-71
2022/07/25 08:25:08;;;;;;;13.30;2.67;;;;;;;29.38;31.41;98795.03;4998104;28;20046;-72
2022/07/25 08:27:52;;;;;;;3.90;2.08;;;;;;;30.34;30.79;98789.84;5014227;28;20038;-73
2022/07/25 08:30:40;;;;;;;4.57;2.28;;;;;;;30.58;29.54;98795.25;5011823;28;20470;-72
2022/07/25 08:33:25;;;;;;;4.53;2.67;;;;;;;31.01;30.01;98794.25;5011603;28;20486;-72
2022/07/25 08:36:10;;;;;;;3.50;2.40;;;;;;;31.30;29.61;98786.97;5014140;28;20096;-72
2022/07/25 08:38:56;;;;;;;5.50;2.15;;;;;;;30.94;29.70;98791.69;5013268;28;20041;-72
2022/07/25 08:41:41;;;;;;;5.63;2.42;;;;;;;31.54;28.03;98784.19;5025823;28;20065;-72
2022/07/25 08:44:30;;;;;;;3.88;2.00;;;;;;;30.43;29.08;98784.94;5013476;28;20053;-72
2022/07/25 08:47:16;;;;;;;4.13;2.47;;;;;;;30.91;29.20;98793.00;5013045;28;20341;-72
2022/07/25 08:50:07;;;;;;;4.05;2.55;;;;;;;31.37;27.86;98778.69;5025370;28;20037;-72
2022/07/25 08:52:51;;;;;;;;;;;;;;;30.93;27.93;98781.94;5013665;28;20042;-72
2022/07/25 08:55:36;;;;;;;3.28;2.10;;;;;;;31.20;28.82;98773.25;5011539;28;20321;-72
2022/07/25 08:58:21;;;;;;;5.53;2.22;;;;;;;31.39;28.90;98771.19;5025692;28;20064;-72
2022/07/25 09:01:06;;;;;;;3.70;2.22;;;;;;;31.50;28.18;98766.78;5012601;28;20367;-72
2022/07/25 09:03:54;;;;;;;4.82;2.22;;;;;;;32.45;27.07;98767.16;5011167;28;20042;-72
2022/07/25 09:06:51;;;;;;;2.90;2.10;;;;;;;32.46;26.51;98766.13;5012772;28;20501;-72
2022/07/25 09:09:37;;;;;;;3.25;1.85;;;;;;;31.93;26.35;98760.97;5011264;28;20061;-71
2022/07/25 09:12:26;;;;;;;3.53;1.90;;;;;;;31.80;26.97;98754.84;5024981;28;20082;-71
2022/07/25 09:15:22;;;;;;;2.80;2.03;;;;;;;32.00;28.61;98763.56;5012507;28;20084;-72
2022/07/25 09:18:12;;;;;;;3.58;2.10;;;;;;;32.88;26.56;98756.63;5015948;28;20049;-73
2022/07/25 09:20:58;;;;;;;3.17;2.17;;;;;;;33.38;26.12;98762.06;5016061;28;20038;-72
2022/07/25 09:23:43;;;;;;;5.88;2.33;;;;;;;33.27;26.57;98754.88;5024319;28;20096;-73
2022/07/25 09:26:28;;;;;;;5.32;1.80;;;;;;;32.88;26.37;98755.81;4998113;28;20029;-71
2022/07/25 09:29:27;;;;;;;4.18;2.30;;;;;;;32.61;27.31;98751.97;5002363;28;20048;-70
2022/07/25 09:32:18;;;;;;;2.78;2.08;;;;;;;32.77;26.63;98746.75;5012993;28;20057;-73
2022/07/25 09:35:03;;;;;;;3.97;1.60;;;;;;;34.31;25.71;98741.34;5014784;28;20438;-72
2022/07/25 09:37:48;;;;;;;3.00;1.92;;;;;;;33.45;26.44;98736.59;5021659;28;20450;-72
2022/07/25 09:40:32;;;;;;;2.58;1.80;;;;;;;33.41;26.43;98731.69;5014292;28;20038;-73
2022/07/25 09:43:17;;;;;;;3.45;1.70;;;;;;;34.20;25.05;98735.84;5015883;28;20081;-72
2022/07/25 09:46:02;;;;;;;3.72;1.80;;;;;;;33.30;25.50;98719.94;5002414;28;20050;-73
2022/07/25 09:48:57;;;;;;;2.40;1.90;;;;;;;34.28;24.52;98720.94;5015205;28;20114;-71
2022/07/25 09:51:42;;;;;;;4.43;1.80;;;;;;;33.75;25.38;98714.34;5011751;28;20368;-72
2022/07/25 09:54:27;;;;;;;2.10;1.50;;;;;;;33.26;24.59;98713.38;5012988;28;20442;-72
2022/07/25 09:57:11;;;;;;;5.18;1.75;;;;;;;34.46;23.69;98711.50;5027266;28;20095;-72
2022/07/25 09:59:59;;;;;;;2.72;1.85;;;;;;;33.90;24.25;98712.84;4996735;28;20050;-71
2022/07/25 10:03:11;;;;;;;2.65;1.73;;;;;;;34.23;24.85;98707.31;5008525;28;20038;-71
2022/07/25 10:06:20;;;;;;;3.85;1.88;;;;;;;35.27;25.21;98702.25;5024079;28;20080;-71
2022/07/25 10:09:13;;;;;;;2.90;1.90;;;;;;;35.24;22.70;98702.78;5023976;28;20478;-74
2022/07/25 10:12:09;;;;;;;2.70;1.70;;;;;;;35.58;22.50;98693.28;5013447;28;20045;-72
2022/07/25 10:15:10;;;;;;;2.30;1.63;;;;;;;35.73;23.37;98681.56;5002453;28;20038;-72
2022/07/25 10:18:02;;;;;;;4.13;2.10;;;;;;;35.16;24.07;98682.34;5011217;28;20042;-71
2022/07/25 10:20:50;;;;;;;4.65;2.03;;;;;;;35.29;24.67;98678.28;5015320;28;20136;-72
2022/07/25 10:23:35;;;;;;;4.28;1.83;;;;;;;35.31;23.24;98667.13;5015210;28;20069;-72
2022/07/25 10:26:20;;;;;;;2.78;1.90;;;;;;;34.28;24.26;98688.34;5010846;28;20053;-72
2022/07/25 10:29:09;;;;;;;3.17;1.42;;;;;;;34.86;26.70;98676.59;4995966;28;20038;-73
2022/07/25 10:32:07;;;;;;;5.83;2.17;;;;;;;36.06;24.47;98657.53;5024043;28;20108;-73
2022/07/25 10:34:53;;;;;;;4.35;2.22;;;;;;;34.66;24.58;98666.47;5023664;28;20311;-72
2022/07/25 10:37:38;;;;;;;3.63;2.00;;;;;;;35.24;25.42;98653.81;5011836;28;20113;-72
2022/07/25 10:40:25;;;;;;;2.97;1.92;;;;;;;35.62;23.60;98648.88;5010607;28;20807;-72
2022/07/25 10:43:21;;;;;;;4.70;2.03;;;;;;;35.78;24.27;98646.16;5023546;28;20092;-72
2022/07/25 10:46:22;;;;;;;2.40;1.73;;;;;;;35.56;26.08;98641.00;4984056;28;20030;-72
2022/07/25 10:49:07;;;;;;;4.53;2.03;;;;;;;36.33;23.85;98640.00;5021104;28;20380;-72
2022/07/25 10:52:02;;;;;;;4.45;2.13;;;;;;;36.75;24.61;98642.53;5021494;28;20069;-72
2022/07/25 10:54:54;;;;;;;3.22;2.08;;;;;;;35.70;24.68;98643.97;5024128;28;20044;-72
2022/07/25 10:57:38;;;;;;;3.53;1.90;;;;;;;36.65;26.06;98635.19;5030149;28;20111;-72
2022/07/25 11:00:24;;;;;;;2.83;2.08;;;;;;;36.51;25.35;98642.38;5012598;28;20041;-74
2022/07/25 11:03:09;;;;;;;3.95;2.10;;;;;;;36.87;23.20;98622.25;5010027;28;20048;-73
2022/07/25 11:05:54;;;;;;;2.65;2.20;;;;;;;37.34;22.28;98618.06;4994553;28;20099;-73
2022/07/25 11:08:42;;;;;;;2.50;2.03;;;;;;;38.44;21.75;98612.22;5007665;28;20037;-73
2022/07/25 11:11:39;;;;;;;3.20;2.03;;;;;;;38.20;22.48;98617.75;5000438;28;20034;-73
2022/07/25 11:14:30;;;;;;;2.50;2.03;;;;;;;36.98;24.36;98613.69;5027874;28;20037;-73
2022/07/25 11:17:18;;;;;;;2.75;2.08;;;;;;;37.52;23.09;98613.00;4997349;28;20045;-73
2022/07/25 11:20:08;;;;;;;2.28;1.70;;;;;;;37.58;21.53;98606.38;5010709;28;20088;-72
2022/07/25 11:22:54;;;;;;;3.55;2.03;;;;;;;36.91;23.25;98604.22;5009910;28;20505;-72
2022/07/25 11:25:41;;;;;;;3.58;1.90;;;;;;;37.15;25.11;98606.22;4997265;28;20113;-72
2022/07/25 11:28:39;;;;;;;6.30;2.33;;;;;;;36.18;24.22;98599.16;5023412;28;20034;-72
2022/07/25 11:31:23;;;;;;;6.00;2.05;;;;;;;36.24;24.50;98589.88;5010355;28;20046;-72
2022/07/25 11:34:08;;;;;;;2.60;1.95;;;;;;;37.17;24.88;98593.91;4996674;28;20133;-72
2022/07/25 11:36:56;;;;;;;4.45;1.98;;;;;;;37.58;23.49;98579.06;5009448;28;20041;-72
2022/07/25 11:39:43;;;;;;;2.83;1.77;;;;;;;36.93;24.16;98581.03;5009024;28;20069;-72
2022/07/25 11:42:47;;;;;;;5.63;2.17;;;;;;;37.29;22.55;98571.72;5010113;28;20057;-73
2022/07/25 11:45:33;;;;;;;2.20;1.88;;;;;;;38.49;23.65;98564.84;4995903;28;20041;-72
2022/07/25 11:48:21;;;;;;;7.03;2.17;;;;;;;37.28;22.75;98561.09;5026611;28;20038;-73
2022/07/25 11:51:17;;;;;;;3.45;1.80;;;;;;;36.85;23.92;98565.28;5021696;28;20042;-72
2022/07/25 11:54:08;;;;;;;2.78;1.63;;;;;;;37.14;23.55;98558.19;4999665;28;20030;-73
2022/07/25 11:56:52;;;;;;;3.50;2.40;;;;;;;36.70;23.61;98552.53;5012374;28;20077;-72
2022/07/25 11:59:41;;;;;;;2.63;2.03;;;;;;;37.66;24.19;98538.56;5026953;28;20070;-73
2022/07/25 12:02:31;;;;;;;3.38;2.00;;;;;;;36.91;25.62;98538.75;5007640;28;20042;-73
2022/07/25 12:05:19;;;;;;;2.70;2.00;;;;;;;38.24;25.29;98546.91;5013963;28;20046;-72
2022/07/25 12:08:12;;;;;;;2.97;2.00;;;;;;;39.21;22.44;98529.22;5013438;28;20046;-73
2022/07/25 12:10:56;;;;;;;5.07;2.70;;;;;;;37.76;22.53;98526.72;5001281;28;20034;-74
2022/07/25 12:13:41;;;;;;;2.05;1.85;;;;;;;38.07;23.84;98531.78;5013352;28;20042;-72
2022/07/25 12:16:26;;;;;;;3.88;2.00;;;;;;;39.14;22.34;98515.16;4993568;28;20034;-73
2022/07/25 12:19:19;;;;;;;2.70;1.98;;;;;;;37.08;25.02;98511.06;5020875;28;20046;-73
2022/07/25 12:22:03;;;;;;;2.97;2.15;;;;;;;38.63;23.45;98506.66;5012637;28;20056;-73
2022/07/25 12:24:48;;;;;;;3.05;2.20;;;;;;;39.06;22.49;98492.78;5026530;28;20048;-73
2022/07/25 12:27:33;;;;;;;3.03;2.28;;;;;;;37.81;23.67;98500.16;5014602;28;20057;-72
2022/07/25 12:30:18;;;;;;;3.13;2.45;;;;;;;37.81;22.80;98507.53;5026039;28;20084;-72
2022/07/25 12:33:04;;;;;;;3.17;2.28;;;;;;;37.65;23.84;98488.59;5013396;28;20093;-72
2022/07/25 12:35:49;;;;;;;5.38;2.47;;;;;;;37.65;23.24;98485.06;5012061;28;20053;-71
2022/07/25 12:38:33;;;;;;;4.28;2.33;;;;;;;37.53;23.99;98480.81;5012267;28;20057;-72
2022/07/25 12:41:21;;;;;;;3.38;2.17;;;;;;;37.49;23.81;98476.25;4997968;28;20042;-73
2022/07/25 12:44:06;;;;;;;3.15;2.10;;;;;;;37.87;25.57;98476.31;4998767;28;20038;-72
2022/07/25 12:46:51;;;;;;;6.30;2.20;;;;;;;38.42;22.89;98477.72;5012506;28;20030;-72
2022/07/25 12:49:36;;;;;;;3.13;2.25;;;;;;;38.80;24.43;98465.06;4998497;28;20033;-72
2022/07/25 12:52:21;;;;;;;2.95;2.03;;;;;;;39.53;21.44;98453.56;5013712;28;20437;-73
2022/07/25 12:55:09;;;;;;;3.70;2.50;;;;;;;38.35;22.70;98466.34;5006945;28;20065;-71
2022/07/25 12:57:54;;;;;;;3.88;2.55;;;;;;;37.65;23.23;98455.00;5012220;28;20056;-72
2022/07/25 13:00:39;;;;;;;3.25;2.20;;;;;;;38.05;25.53;98457.47;5011027;28;20034;-72
2022/07/25 13:03:23;;;;;;;4.18;1.98;;;;;;;39.35;23.64;98438.09;5012968;28;20539;-73
2022/07/25 13:06:08;;;;;;;3.72;2.45;;;;;;;38.26;24.04;98443.56;4998028;28;20129;-72